createdAt,value
2023-02-26T00:01:36.831Z,99.90
2023-02-26T00:08:19.323Z,99.90
2023-02-26T00:15:01.884Z,99.90
2023-02-26T00:21:44.376Z,99.90
2023-02-26T00:28:26.905Z,99.90
2023-02-26T00:35:13.200Z,99.90
2023-02-26T00:41:56.026Z,99.90
2023-02-26T00:48:44.196Z,99.90
2023-02-26T00:55:28.373Z,99.90
2023-02-26T01:02:11.379Z,99.90
2023-02-26T01:09:09.986Z,99.90
2023-02-26T01:16:00.978Z,99.90
2023-02-26T01:22:52.069Z,99.90
2023-02-26T01:36:28.082Z,99.90
2023-02-26T01:43:15.993Z,99.90
2023-02-26T01:50:06.992Z,99.90
2023-02-26T02:03:38.979Z,99.90
2023-02-26T02:10:23.737Z,99.90
2023-02-26T02:17:24.356Z,99.90
2023-02-26T02:51:34.362Z,99.90
2023-02-26T02:58:24.925Z,99.90
2023-02-26T03:05:07.673Z,99.90
2023-02-26T03:11:50.128Z,99.90
2023-02-26T03:18:52.638Z,99.90
2023-02-26T03:25:51.312Z,99.90
2023-02-26T03:32:54.905Z,99.90
2023-02-26T03:39:45.597Z,99.90
2023-02-26T03:46:35.681Z,99.90
2023-02-26T03:53:28.219Z,99.90
2023-02-26T04:00:17.829Z,99.90
2023-02-26T04:07:02.443Z,99.90
2023-02-26T04:13:45.551Z,99.90
2023-02-26T04:20:28.419Z,99.90
2023-02-26T04:27:10.819Z,99.90
2023-02-26T04:33:54.706Z,99.90
2023-02-26T04:40:37.892Z,99.90
2023-02-26T04:47:22.687Z,99.90
2023-02-26T04:54:05.179Z,99.90
2023-02-26T05:00:49.751Z,99.90
2023-02-26T05:07:32.129Z,99.90
2023-02-26T05:14:14.946Z,99.90
2023-02-26T05:20:57.485Z,99.90
2023-02-26T05:34:25.184Z,99.90
2023-02-26T05:41:07.456Z,99.90
2023-02-26T05:47:49.740Z,99.90
2023-02-26T05:54:32.058Z,99.90
2023-02-26T06:01:14.383Z,99.90
2023-02-26T06:07:56.616Z,99.90
2023-02-26T06:14:38.898Z,99.90
2023-02-26T06:21:21.182Z,99.90
2023-02-26T06:28:03.548Z,99.90
2023-02-26T06:34:45.875Z,99.90
2023-02-26T07:08:18.643Z,99.90
2023-02-26T07:15:01.002Z,99.90
2023-02-26T07:21:43.573Z,99.90
2023-02-26T07:28:26.071Z,99.90
2023-02-26T07:35:08.753Z,99.90
2023-02-26T07:41:51.057Z,99.90
2023-02-26T07:48:33.445Z,99.90
2023-02-26T07:55:15.788Z,99.90
2023-02-26T08:01:58.146Z,99.90
2023-02-26T08:08:40.536Z,99.90
2023-02-26T08:15:22.959Z,98.40
2023-02-26T08:22:05.284Z,99.90
2023-02-26T08:28:48.223Z,99.90
2023-02-26T08:35:30.591Z,99.90
2023-02-26T08:42:16.229Z,99.90
2023-02-26T08:48:58.530Z,99.90
2023-02-26T08:55:40.909Z,99.90
2023-02-26T09:02:23.531Z,99.90
2023-02-26T09:09:06.057Z,99.90
2023-02-26T09:15:49.481Z,99.90
2023-02-26T09:22:32.357Z,99.90
2023-02-26T09:29:14.908Z,99.90
2023-02-26T09:35:57.268Z,99.90
2023-02-26T09:42:55.212Z,99.90
2023-02-26T09:50:09.901Z,99.90
2023-02-26T09:56:55.287Z,99.90
2023-02-26T10:03:56.237Z,99.90
2023-02-26T10:10:58.454Z,99.90
2023-02-26T10:18:05.697Z,99.90
2023-02-26T10:25:03.224Z,99.90
2023-02-26T10:32:17.482Z,99.90
2023-02-26T10:39:15.859Z,99.90
2023-02-26T10:46:37.151Z,99.90
2023-02-26T10:53:21.639Z,99.90
2023-02-26T11:00:06.927Z,99.90
2023-02-26T11:06:59.395Z,99.90
2023-02-26T11:13:41.915Z,99.90
2023-02-26T11:20:33.704Z,99.90
2023-02-26T11:27:30.341Z,99.90
2023-02-26T11:34:12.842Z,99.90
2023-02-26T11:40:58.031Z,99.90
2023-02-26T11:47:40.446Z,99.90
2023-02-26T11:54:24.911Z,99.90
2023-02-26T12:01:10.116Z,99.90
2023-02-26T12:07:52.449Z,99.90
2023-02-26T12:14:57.063Z,99.90
2023-02-26T12:22:17.101Z,99.90
2023-02-26T12:29:44.427Z,99.90
2023-02-26T12:37:04.858Z,99.90
2023-02-26T12:43:52.420Z,99.90
2023-02-26T12:51:10.573Z,99.90
2023-02-26T12:58:28.507Z,99.90
2023-02-26T13:05:25.806Z,99.90
2023-02-26T13:12:27.339Z,99.90
2023-02-26T13:19:36.681Z,99.90
2023-02-26T13:26:21.184Z,99.90
2023-02-26T13:33:04.341Z,99.90
2023-02-26T13:40:19.829Z,98.60
2023-02-26T13:47:05.009Z,99.00
2023-02-26T13:54:00.982Z,96.50
2023-02-26T14:00:48.243Z,95.60
2023-02-26T14:07:56.314Z,97.20
2023-02-26T14:15:13.913Z,99.70
2023-02-26T14:22:17.530Z,97.60
2023-02-26T14:29:05.652Z,97.30
2023-02-26T14:35:51.695Z,97.10
2023-02-26T14:42:56.454Z,96.40
2023-02-26T14:49:41.836Z,93.60
2023-02-26T14:56:54.756Z,94.00
2023-02-26T15:04:07.971Z,95.20
2023-02-26T15:11:05.892Z,94.80
2023-02-26T15:18:12.217Z,95.10
2023-02-26T15:24:54.849Z,95.10
2023-02-26T15:31:42.819Z,95.90
2023-02-26T15:38:26.242Z,97.20
2023-02-26T15:45:17.041Z,95.90
2023-02-26T15:52:01.692Z,94.60
2023-02-26T15:58:51.979Z,94.60
2023-02-26T16:05:34.387Z,94.10
2023-02-26T16:12:19.669Z,92.00
2023-02-26T16:19:02.078Z,91.90
2023-02-26T16:25:56.307Z,92.90
2023-02-26T16:32:39.585Z,93.40
2023-02-26T16:39:29.716Z,93.60
2023-02-26T16:46:31.633Z,92.10
2023-02-26T16:53:20.311Z,92.00
2023-02-26T17:00:11.952Z,92.50
2023-02-26T17:06:55.258Z,92.50
2023-02-26T17:13:38.424Z,92.20
2023-02-26T17:20:20.764Z,93.00
2023-02-26T17:27:05.359Z,93.10
2023-02-26T17:33:47.896Z,94.20
2023-02-26T17:40:36.746Z,95.00
2023-02-26T17:47:28.192Z,96.30
2023-02-26T17:54:10.524Z,96.90
2023-02-26T18:00:53.886Z,96.60
2023-02-26T18:07:37.074Z,96.70
2023-02-26T18:14:19.384Z,96.10
2023-02-26T18:21:02.178Z,95.90
2023-02-26T18:27:45.165Z,94.90
2023-02-26T18:34:28.050Z,95.30
2023-02-26T18:41:10.569Z,95.20
2023-02-26T18:47:52.971Z,95.10
2023-02-26T18:54:35.610Z,95.10
2023-02-26T19:01:18.183Z,95.60
2023-02-26T19:08:01.059Z,96.10
2023-02-26T19:14:43.429Z,96.40
2023-02-26T19:21:27.956Z,96.30
2023-02-26T19:48:21.138Z,97.20
2023-02-26T19:55:08.413Z,97.90
2023-02-26T20:01:51.264Z,98.30
2023-02-26T20:08:34.246Z,98.90
2023-02-26T20:15:16.777Z,99.50
2023-02-26T20:21:59.048Z,99.30
2023-02-26T20:28:42.316Z,99.50
2023-02-26T20:35:25.211Z,99.90
2023-02-26T20:42:07.515Z,99.90
2023-02-26T20:48:49.863Z,99.90
2023-02-26T20:55:32.255Z,99.90
2023-02-26T21:02:15.966Z,99.90
2023-02-26T21:08:59.223Z,99.90
2023-02-26T21:15:41.549Z,99.90
2023-02-26T21:22:24.163Z,99.90
2023-02-26T21:29:06.535Z,99.90
2023-02-26T21:35:52.258Z,99.90
2023-02-26T21:42:37.206Z,99.90
2023-02-26T21:49:20.513Z,99.90
2023-02-26T21:56:02.897Z,99.90
2023-02-26T22:02:45.487Z,99.90
2023-02-26T22:09:27.887Z,99.90
2023-02-26T22:16:10.246Z,99.90
2023-02-26T22:22:52.554Z,99.90
2023-02-26T22:29:35.831Z,99.90
2023-02-26T22:36:18.543Z,99.90
2023-02-26T22:43:00.890Z,99.90
2023-02-26T23:16:36.065Z,99.90
2023-02-26T23:23:18.776Z,99.90
2023-02-26T23:30:01.414Z,99.90
2023-02-26T23:36:43.684Z,99.90
2023-02-26T23:56:51.829Z,99.90
